Time;durP1;ratioP1;P1;durP2;ratioP2;P2;SDS_P1;SDS_P2;PMS_P1;PMS_P2;Temp;Humidity;BMP_temperature;BMP_pressure;BME280_temperature;BME280_humidity;BME280_pressure;Samples;Min_cycle;Max_cycle;Signal;HPM_P1;HPM_P2
2021/08/30 00:01:03;;;;;;;5.43;3.10;;;16.50;99.90;;;;;;5015530;28;20451;-52
2021/08/30 00:03:30;;;;;;;3.10;2.63;;;16.50;99.90;;;;;;5016119;28;20861;-51
2021/08/30 00:05:58;;;;;;;4.20;2.90;;;17.00;99.90;;;;;;5015553;28;20484;-51
2021/08/30 00:08:25;;;;;;;6.73;3.33;;;16.50;99.90;;;;;;5015290;28;20960;-51
2021/08/30 00:10:51;;;;;;;3.40;3.10;;;16.50;99.90;;;;;;5015505;28;20443;-51
2021/08/30 00:13:18;;;;;;;3.20;2.90;;;16.40;99.90;;;;;;5015835;28;20489;-52
2021/08/30 00:15:44;;;;;;;9.30;3.10;;;16.50;99.90;;;;;;5015853;28;20468;-50
2021/08/30 00:18:11;;;;;;;4.17;2.87;;;16.60;99.90;;;;;;5015743;28;20923;-52
2021/08/30 00:20:38;;;;;;;3.10;2.80;;;16.60;99.90;;;;;;5015686;28;20438;-51
2021/08/30 00:23:05;;;;;;;2.83;2.53;;;16.60;99.90;;;;;;5015264;28;20433;-52
2021/08/30 00:25:33;;;;;;;3.87;2.67;;;16.60;99.90;;;;;;5037841;23;21018;-51
2021/08/30 00:27:59;;;;;;;5.10;3.90;;;16.70;99.90;;;;;;5014342;28;20435;-52
2021/08/30 00:30:27;;;;;;;3.10;2.80;;;16.70;99.90;;;;;;5015000;28;20647;-51
2021/08/30 00:32:54;;;;;;;4.07;3.67;;;16.70;99.90;;;;;;5014672;28;20474;-51
2021/08/30 00:35:20;;;;;;;4.07;3.57;;;16.80;99.90;;;;;;5014707;28;20980;-51
2021/08/30 00:37:48;;;;;;;5.27;3.07;;;16.70;99.90;;;;;;5014695;28;20431;-51
2021/08/30 00:40:17;;;;;;;4.33;3.50;;;16.70;99.90;;;;;;5014728;28;20452;-51
2021/08/30 00:42:44;;;;;;;3.70;3.30;;;16.70;99.90;;;;;;5014531;28;20768;-51
2021/08/30 00:45:13;;;;;;;5.90;2.83;;;16.70;99.90;;;;;;5014614;28;20467;-51
2021/08/30 00:47:41;;;;;;;5.53;3.10;;;16.70;99.90;;;;;;5014275;28;20444;-51
2021/08/30 00:50:10;;;;;;;3.27;2.97;;;16.70;99.90;;;;;;5014538;28;20771;-51
2021/08/30 00:52:37;;;;;;;3.53;3.13;;;16.70;99.90;;;;;;5014593;28;20440;-51
2021/08/30 00:55:05;;;;;;;4.10;3.60;;;16.70;99.90;;;;;;5014161;28;20465;-51
2021/08/30 00:57:33;;;;;;;4.27;2.90;;;16.70;99.90;;;;;;5013652;28;20411;-51
2021/08/30 01:00:00;;;;;;;3.37;3.07;;;16.70;99.90;;;;;;5014142;28;20853;-52
2021/08/30 01:02:26;;;;;;;5.30;3.67;;;16.70;99.90;;;;;;5014422;28;20929;-51
2021/08/30 01:04:53;;;;;;;4.50;3.53;;;16.70;99.90;;;;;;5014176;28;20458;-52
2021/08/30 01:07:26;;;;;;;3.00;2.80;;;16.70;99.90;;;;;;5014076;28;20488;-51
2021/08/30 01:09:57;;;;;;;3.37;3.07;;;16.70;99.90;;;;;;5013825;28;20407;-51
2021/08/30 01:12:27;;;;;;;3.80;3.50;;;16.70;99.90;;;;;;5014140;28;20937;-51
2021/08/30 01:15:00;;;;;;;3.90;3.60;;;16.70;99.90;;;;;;5013991;28;20436;-51
2021/08/30 01:17:29;;;;;;;3.73;3.30;;;16.60;99.90;;;;;;5014262;28;20444;-51
2021/08/30 01:20:04;;;;;;;3.80;3.50;;;16.60;99.90;;;;;;5012210;28;20442;-51
2021/08/30 01:22:32;;;;;;;3.67;3.37;;;16.60;99.90;;;;;;5013931;28;20436;-51
2021/08/30 01:25:00;;;;;;;3.70;3.40;;;16.60;99.90;;;;;;5012374;28;20475;-51
2021/08/30 01:27:29;;;;;;;4.20;3.80;;;16.60;99.90;;;;;;5013614;28;21047;-51
2021/08/30 01:30:02;;;;;;;5.17;4.10;;;16.60;99.90;;;;;;5013504;28;20438;-51
2021/08/30 01:32:33;;;;;;;3.47;3.17;;;16.60;99.90;;;;;;5013653;28;20877;-51
2021/08/30 01:35:03;;;;;;;3.77;3.47;;;16.60;99.90;;;;;;5013627;28;20983;-51
2021/08/30 01:37:32;;;;;;;3.70;3.40;;;16.60;99.90;;;;;;5013125;28;20517;-50
2021/08/30 01:39:59;;;;;;;4.40;3.70;;;16.60;99.90;;;;;;5013199;28;20425;-50
2021/08/30 01:42:29;;;;;;;3.90;3.60;;;16.60;99.90;;;;;;5013463;28;20548;-50
2021/08/30 01:44:56;;;;;;;4.30;3.50;;;16.60;99.90;;;;;;5013334;28;20468;-50
2021/08/30 01:47:24;;;;;;;3.77;3.47;;;16.60;99.90;;;;;;5013299;28;20479;-50
2021/08/30 01:50:00;;;;;;;3.40;3.10;;;16.50;99.90;;;;;;5013138;28;20439;-50
2021/08/30 01:52:28;;;;;;;4.27;3.80;;;16.60;99.90;;;;;;5013360;28;20440;-50
2021/08/30 01:54:55;;;;;;;4.20;3.90;;;16.60;99.90;;;;;;5013260;28;20460;-50
2021/08/30 01:57:24;;;;;;;5.67;4.17;;;16.60;99.90;;;;;;5013206;28;20428;-50
2021/08/30 02:02:37;;;;;;;4.97;4.23;;;16.50;99.90;;;;;;5013056;28;20408;-51
2021/08/30 02:05:05;;;;;;;5.00;4.53;;;16.60;99.90;;;;;;5012948;28;20457;-50
2021/08/30 02:07:32;;;;;;;5.20;4.70;;;16.60;99.90;;;;;;5012717;28;20492;-50
2021/08/30 02:10:00;;;;;;;4.03;3.63;;;16.50;99.90;;;;;;5011779;28;20432;-50
2021/08/30 02:12:26;;;;;;;4.63;4.20;;;16.50;99.90;;;;;;5013200;28;20690;-50
2021/08/30 02:14:53;;;;;;;4.00;3.60;;;16.50;99.90;;;;;;5012810;28;20455;-50
2021/08/30 02:17:29;;;;;;;4.67;4.17;;;16.40;99.90;;;;;;5013039;28;20437;-50
2021/08/30 02:20:01;;;;;;;4.03;3.67;;;16.40;99.90;;;;;;5012554;28;20432;-50
2021/08/30 02:22:35;;;;;;;4.40;3.77;;;16.40;99.90;;;;;;5013096;28;20528;-50
2021/08/30 02:25:05;;;;;;;4.30;3.90;;;16.40;99.90;;;;;;5012589;28;20480;-50
2021/08/30 02:27:41;;;;;;;4.47;4.07;;;16.40;99.90;;;;;;5012681;28;20488;-50
2021/08/30 02:30:13;;;;;;;4.10;3.70;;;16.40;99.90;;;;;;5012662;28;20522;-50
2021/08/30 02:32:43;;;;;;;5.90;3.60;;;16.40;99.90;;;;;;5012651;28;20445;-50
2021/08/30 02:35:11;;;;;;;4.13;3.60;;;16.40;99.90;;;;;;5012632;28;20457;-50
2021/08/30 02:37:41;;;;;;;5.30;4.83;;;16.40;99.90;;;;;;5012283;28;20443;-50
2021/08/30 02:40:10;;;;;;;4.93;4.43;;;16.50;99.90;;;;;;5012451;28;20429;-50
2021/08/30 02:42:37;;;;;;;4.37;3.97;;;16.40;99.90;;;;;;5011247;28;20442;-50
2021/08/30 02:45:07;;;;;;;5.90;3.67;;;16.40;99.90;;;;;;5012202;28;20457;-50
2021/08/30 02:47:35;;;;;;;6.70;4.40;;;16.40;99.90;;;;;;5012139;28;21008;-50
2021/08/30 02:50:03;;;;;;;4.13;3.60;;;16.50;99.90;;;;;;5012046;28;20491;-50
2021/08/30 02:52:31;;;;;;;4.50;4.10;;;16.40;99.90;;;;;;5012081;28;20445;-50
2021/08/30 02:54:59;;;;;;;4.40;4.00;;;16.40;99.90;;;;;;5012062;28;20464;-50
2021/08/30 02:57:26;;;;;;;4.87;4.47;;;16.40;99.90;;;;;;5012190;28;20449;-50
2021/08/30 02:59:53;;;;;;;5.30;4.80;;;16.40;99.90;;;;;;5012043;28;20436;-50
2021/08/30 03:02:22;;;;;;;6.20;5.60;;;16.40;99.90;;;;;;5012316;28;20952;-50
2021/08/30 03:04:50;;;;;;;6.03;5.53;;;16.40;99.90;;;;;;5012053;28;20929;-50
2021/08/30 03:07:17;;;;;;;5.73;4.90;;;16.50;99.90;;;;;;5010688;28;20464;-50
2021/08/30 03:09:44;;;;;;;5.53;5.03;;;16.40;99.90;;;;;;5011471;28;20440;-50
2021/08/30 03:12:15;;;;;;;5.60;5.10;;;16.40;99.90;;;;;;5011996;28;20436;-50
2021/08/30 03:14:46;;;;;;;6.47;5.80;;;16.30;99.90;;;;;;5011911;28;20432;-50
2021/08/30 03:17:14;;;;;;;6.20;5.60;;;16.30;99.90;;;;;;5011810;28;20436;-50
2021/08/30 03:19:42;;;;;;;6.33;5.77;;;16.30;99.90;;;;;;5011426;28;20444;-50
2021/08/30 03:22:11;;;;;;;5.37;4.87;;;16.30;99.90;;;;;;5011845;28;20441;-50
2021/08/30 03:24:40;;;;;;;6.13;5.53;;;16.30;99.90;;;;;;5011699;28;20837;-50
2021/08/30 03:27:08;;;;;;;5.53;4.73;;;16.30;99.90;;;;;;5011742;28;20480;-50
2021/08/30 03:29:37;;;;;;;6.10;5.50;;;16.40;99.90;;;;;;5011344;28;20440;-50
2021/08/30 03:32:06;;;;;;;5.30;4.40;;;16.30;99.90;;;;;;5011701;28;21004;-50
2021/08/30 03:34:34;;;;;;;6.03;5.53;;;16.40;99.90;;;;;;5011496;28;20440;-50
2021/08/30 03:37:02;;;;;;;6.40;5.80;;;16.40;99.90;;;;;;5011621;28;20439;-50
2021/08/30 03:39:29;;;;;;;6.30;5.70;;;16.40;99.90;;;;;;5011052;28;20428;-50
2021/08/30 03:41:57;;;;;;;7.00;5.80;;;16.40;99.90;;;;;;5011744;28;20447;-50
2021/08/30 03:44:25;;;;;;;6.90;6.10;;;16.40;99.90;;;;;;5011689;28;20434;-50
2021/08/30 03:46:55;;;;;;;8.23;7.07;;;16.40;99.90;;;;;;5011512;28;20965;-51
2021/08/30 03:49:24;;;;;;;7.53;6.83;;;16.40;99.90;;;;;;5011178;28;20832;-50
2021/08/30 03:51:51;;;;;;;8.10;5.93;;;16.10;99.90;;;;;;5011868;28;20820;-50
2021/08/30 03:54:18;;;;;;;10.07;6.87;;;16.40;99.90;;;;;;5011323;28;20870;-50
2021/08/30 03:56:47;;;;;;;7.60;6.77;;;16.40;99.90;;;;;;5011391;28;20488;-50
2021/08/30 03:59:16;;;;;;;8.47;7.43;;;16.50;99.90;;;;;;5009782;28;20600;-50
2021/08/30 04:01:45;;;;;;;7.77;6.73;;;16.40;99.90;;;;;;5011636;28;20799;-51
2021/08/30 04:04:18;;;;;;;8.53;7.50;;;16.40;99.90;;;;;;5011515;28;20433;-50
2021/08/30 04:06:46;;;;;;;7.93;7.13;;;16.40;99.90;;;;;;5011129;28;20480;-50
2021/08/30 04:09:15;;;;;;;6.93;6.23;;;16.40;99.90;;;;;;5011277;28;20430;-50
2021/08/30 04:11:44;;;;;;;8.80;6.30;;;16.30;99.90;;;;;;5011388;28;20451;-50
2021/08/30 04:14:12;;;;;;;9.20;7.07;;;16.40;99.90;;;;;;5011314;28;20479;-50
2021/08/30 04:16:38;;;;;;;8.37;6.70;;;16.40;99.90;;;;;;5011162;28;20464;-50
2021/08/30 04:19:05;;;;;;;8.37;7.47;;;16.50;99.90;;;;;;5010775;28;20572;-50
2021/08/30 04:21:33;;;;;;;8.80;7.90;;;16.70;99.90;;;;;;5011252;28;20440;-50
2021/08/30 04:24:00;;;;;;;9.00;8.00;;;16.40;99.90;;;;;;5011298;28;20487;-50
2021/08/30 04:26:27;;;;;;;9.27;7.20;;;16.40;99.90;;;;;;5009347;28;20476;-50
2021/08/30 04:28:53;;;;;;;9.53;8.60;;;16.70;99.90;;;;;;5010771;28;20429;-50
2021/08/30 04:31:20;;;;;;;8.63;7.73;;;16.30;99.90;;;;;;5011005;28;20445;-50
2021/08/30 04:33:46;;;;;;;9.53;8.63;;;16.40;99.90;;;;;;5014643;28;20428;-50
2021/08/30 04:36:13;;;;;;;8.80;7.97;;;16.40;99.90;;;;;;5014471;28;20460;-50
2021/08/30 04:38:41;;;;;;;9.87;8.47;;;16.30;99.90;;;;;;5013742;28;20432;-50
2021/08/30 04:41:07;;;;;;;8.60;7.80;;;16.40;99.90;;;;;;5014326;28;20436;-50
2021/08/30 04:43:34;;;;;;;12.23;9.93;;;16.70;99.90;;;;;;5014375;28;20938;-50
2021/08/30 04:46:01;;;;;;;9.27;8.37;;;16.40;99.90;;;;;;5014279;28;20801;-50
2021/08/30 04:48:27;;;;;;;9.57;8.57;;;16.40;99.90;;;;;;5014149;28;20479;-50
2021/08/30 04:50:54;;;;;;;10.53;8.93;;;16.40;99.90;;;;;;5014286;28;20448;-50
2021/08/30 04:53:20;;;;;;;13.20;11.80;;;16.40;99.90;;;;;;5014063;28;20444;-50
2021/08/30 04:55:48;;;;;;;12.60;11.30;;;16.70;99.90;;;;;;5014180;28;20455;-50
2021/08/30 04:58:15;;;;;;;14.33;12.13;;;16.50;99.90;;;;;;5013437;28;20441;-50
2021/08/30 05:00:42;;;;;;;12.97;11.03;;;16.50;99.90;;;;;;5014159;28;20425;-51
2021/08/30 05:03:08;;;;;;;10.20;9.10;;;16.50;99.90;;;;;;5014096;28;20448;-50
2021/08/30 05:05:35;;;;;;;12.57;11.27;;;16.50;99.90;;;;;;5013683;28;20451;-50
2021/08/30 05:08:02;;;;;;;13.20;10.83;;;16.50;99.90;;;;;;5013154;28;20482;-51
2021/08/30 05:10:28;;;;;;;11.47;10.27;;;16.50;99.90;;;;;;5013926;28;20911;-51
2021/08/30 05:12:56;;;;;;;13.33;11.70;;;16.50;99.90;;;;;;5013759;28;20446;-51
2021/08/30 05:15:23;;;;;;;16.07;12.20;;;16.50;99.90;;;;;;5013545;28;20514;-50
2021/08/30 05:17:50;;;;;;;14.13;11.40;;;16.50;99.90;;;;;;5013095;28;20473;-50
2021/08/30 05:20:17;;;;;;;13.40;11.30;;;16.50;99.90;;;;;;5013143;28;20440;-52
2021/08/30 05:23:15;;;;;;;;;;;;;;;;;;;;;
2021/08/30 05:25:46;;;;;;;18.53;11.30;;;16.60;99.90;;;;;;5002796;28;20649;-50
2021/08/30 05:28:14;;;;;;;11.80;9.70;;;16.60;99.90;;;;;;5012877;28;20472;-50
2021/08/30 05:30:41;;;;;;;13.73;10.70;;;16.60;99.90;;;;;;5012569;28;20428;-50
2021/08/30 05:33:07;;;;;;;14.43;10.30;;;16.60;99.90;;;;;;5012740;28;20444;-50
2021/08/30 05:35:34;;;;;;;12.17;10.77;;;16.60;99.90;;;;;;5012791;28;20525;-50
2021/08/30 05:38:01;;;;;;;12.90;11.07;;;16.60;99.90;;;;;;5012543;28;20933;-50
2021/08/30 05:40:27;;;;;;;12.23;10.50;;;16.60;99.90;;;;;;5015398;28;20956;-51
2021/08/30 05:42:54;;;;;;;12.77;10.20;;;16.60;99.90;;;;;;5011733;28;20446;-52
2021/08/30 05:45:22;;;;;;;13.90;10.83;;;16.60;99.90;;;;;;5012273;28;20461;-52
2021/08/30 05:47:49;;;;;;;16.40;13.23;;;16.60;99.90;;;;;;5011243;28;20472;-52
2021/08/30 05:50:15;;;;;;;15.10;12.50;;;16.80;99.90;;;;;;5011600;28;20487;-52
2021/08/30 05:52:42;;;;;;;17.10;13.30;;;16.60;99.90;;;;;;5012211;28;20445;-51
2021/08/30 05:55:10;;;;;;;15.63;13.13;;;16.60;99.90;;;;;;5011892;28;20872;-51
2021/08/30 05:57:37;;;;;;;17.37;14.00;;;16.70;99.90;;;;;;5012735;28;20443;-51
2021/08/30 06:00:05;;;;;;;16.10;12.90;;;16.70;99.90;;;;;;5012679;28;20978;-52
2021/08/30 06:02:33;;;;;;;16.60;14.20;;;16.70;99.90;;;;;;5012500;28;20446;-51
2021/08/30 06:04:59;;;;;;;17.63;14.97;;;16.70;99.90;;;;;;5011337;28;20979;-52
2021/08/30 06:07:26;;;;;;;15.90;14.20;;;16.80;99.90;;;;;;5012130;28;20968;-52
2021/08/30 06:09:52;;;;;;;16.00;14.20;;;16.80;99.90;;;;;;5010263;28;20453;-51
2021/08/30 06:12:19;;;;;;;16.60;14.87;;;16.80;99.90;;;;;;5011834;28;20528;-52
2021/08/30 06:14:46;;;;;;;16.93;14.07;;;16.80;99.90;;;;;;5011864;28;20445;-52
2021/08/30 06:17:12;;;;;;;18.67;14.80;;;16.80;99.90;;;;;;5012201;28;20433;-52
2021/08/30 06:19:42;;;;;;;18.90;14.40;;;16.80;99.90;;;;;;5011809;28;20775;-52
2021/08/30 06:22:09;;;;;;;17.60;13.63;;;16.80;99.90;;;;;;5012128;28;20432;-51
2021/08/30 06:24:39;;;;;;;19.97;13.80;;;16.80;99.90;;;;;;5011822;28;20468;-52
2021/08/30 06:27:06;;;;;;;17.00;13.77;;;16.80;99.90;;;;;;5009644;23;20530;-53
2021/08/30 06:29:33;;;;;;;19.10;14.20;;;16.80;99.90;;;;;;4992627;28;20521;-53
2021/08/30 06:32:00;;;;;;;17.00;13.20;;;16.90;99.90;;;;;;4992766;28;20442;-54
2021/08/30 06:34:26;;;;;;;18.37;13.60;;;16.90;99.90;;;;;;4992926;28;20460;-54
2021/08/30 06:36:54;;;;;;;16.87;14.07;;;16.90;99.90;;;;;;4992724;28;20827;-54
2021/08/30 06:39:21;;;;;;;18.30;13.13;;;16.90;99.90;;;;;;4992623;28;20447;-54
2021/08/30 06:41:48;;;;;;;18.17;14.10;;;16.90;99.90;;;;;;4974308;28;20978;-54
2021/08/30 06:44:15;;;;;;;21.77;14.20;;;16.90;99.90;;;;;;4992630;28;20462;-53
2021/08/30 06:46:41;;;;;;;19.60;13.83;;;16.90;99.90;;;;;;4992666;28;20556;-53
2021/08/30 06:49:08;;;;;;;15.43;12.60;;;16.90;99.90;;;;;;4991974;28;20801;-54
2021/08/30 06:51:35;;;;;;;15.13;13.57;;;16.90;99.90;;;;;;4992454;28;20443;-54
2021/08/30 06:54:03;;;;;;;15.67;11.90;;;16.90;99.90;;;;;;4992097;28;20429;-54
2021/08/30 06:56:29;;;;;;;14.10;12.63;;;16.90;99.90;;;;;;4993238;28;20465;-53
2021/08/30 06:58:56;;;;;;;13.63;11.80;;;16.90;99.90;;;;;;4992916;28;20434;-53
2021/08/30 07:01:23;;;;;;;16.13;11.70;;;16.90;99.90;;;;;;4992583;28;20445;-54
2021/08/30 07:03:49;;;;;;;14.90;12.63;;;16.90;99.90;;;;;;4992313;28;20438;-54
2021/08/30 07:06:16;;;;;;;17.53;13.50;;;17.00;99.90;;;;;;4992088;28;20453;-54
2021/08/30 07:08:43;;;;;;;15.33;13.57;;;17.00;99.90;;;;;;4991538;28;20505;-54
2021/08/30 07:11:11;;;;;;;16.77;12.83;;;17.00;99.90;;;;;;4991957;28;20901;-54
2021/08/30 07:13:37;;;;;;;13.73;12.30;;;17.10;99.90;;;;;;4992434;28;20440;-54
2021/08/30 07:16:04;;;;;;;14.47;11.83;;;17.10;99.90;;;;;;4992257;28;20492;-54
2021/08/30 07:18:31;;;;;;;13.63;11.43;;;17.20;99.90;;;;;;4992304;28;20537;-54
2021/08/30 07:20:58;;;;;;;16.60;12.20;;;17.20;99.90;;;;;;4992476;28;20504;-54
2021/08/30 07:23:24;;;;;;;13.33;12.03;;;17.30;99.90;;;;;;4992697;28;20564;-55
2021/08/30 07:25:53;;;;;;;15.13;11.47;;;17.30;99.90;;;;;;4974261;28;20467;-54
2021/08/30 07:28:21;;;;;;;14.27;11.17;;;17.30;99.90;;;;;;4991532;28;20510;-53
2021/08/30 07:30:49;;;;;;;12.57;11.27;;;17.30;99.90;;;;;;4992013;28;20416;-53
2021/08/30 07:33:15;;;;;;;12.47;11.13;;;17.40;99.90;;;;;;4992432;28;20821;-54
2021/08/30 07:35:42;;;;;;;16.03;12.10;;;17.40;99.90;;;;;;4991957;28;20454;-55
2021/08/30 07:38:09;;;;;;;13.97;11.40;;;17.40;99.90;;;;;;4991932;28;20489;-54
2021/08/30 07:40:35;;;;;;;14.23;10.50;;;17.40;99.90;;;;;;4991902;28;20438;-54
2021/08/30 07:43:02;;;;;;;12.67;10.80;;;17.40;99.90;;;;;;4991579;28;20904;-54
2021/08/30 07:45:30;;;;;;;14.13;12.10;;;17.30;99.90;;;;;;4991586;28;20455;-54
2021/08/30 07:47:56;;;;;;;16.17;11.07;;;17.30;99.90;;;;;;4990922;28;20981;-54
2021/08/30 07:50:23;;;;;;;12.73;11.40;;;17.30;99.90;;;;;;4992143;28;20443;-54
2021/08/30 07:52:50;;;;;;;17.87;13.80;;;17.30;99.90;;;;;;4991709;28;20508;-54
2021/08/30 07:55:17;;;;;;;14.40;12.07;;;17.30;99.90;;;;;;4991167;28;20473;-54
2021/08/30 07:57:43;;;;;;;16.07;12.27;;;17.30;99.90;;;;;;4990883;28;20444;-54
2021/08/30 08:00:12;;;;;;;14.97;11.53;;;17.20;99.90;;;;;;4991517;28;20475;-54
2021/08/30 08:02:41;;;;;;;17.50;12.23;;;17.20;99.90;;;;;;4991680;28;20492;-54
2021/08/30 08:05:08;;;;;;;11.33;10.13;;;17.00;99.90;;;;;;4994078;28;20439;-54
2021/08/30 08:07:35;;;;;;;15.70;10.80;;;17.20;99.90;;;;;;4994045;28;20438;-54
2021/08/30 08:10:05;;;;;;;15.07;11.20;;;17.30;99.90;;;;;;4995511;28;20448;-53
2021/08/30 08:12:32;;;;;;;12.47;10.33;;;17.40;99.90;;;;;;4995487;28;20932;-57
2021/08/30 08:14:59;;;;;;;17.73;12.17;;;17.50;99.90;;;;;;4995543;28;20437;-56
2021/08/30 08:17:25;;;;;;;14.10;10.80;;;17.60;99.90;;;;;;4995637;28;20448;-53
2021/08/30 08:19:53;;;;;;;13.90;9.90;;;17.70;99.90;;;;;;4995354;28;20434;-54
2021/08/30 08:22:20;;;;;;;13.47;11.80;;;17.80;99.90;;;;;;4995531;28;20441;-53
2021/08/30 08:24:46;;;;;;;12.63;9.67;;;17.90;99.90;;;;;;4994962;28;20439;-53
2021/08/30 08:27:13;;;;;;;15.30;11.60;;;17.90;99.90;;;;;;4995209;28;20504;-53
2021/08/30 08:29:40;;;;;;;15.20;10.13;;;17.90;99.90;;;;;;4993993;28;20496;-54
2021/08/30 08:32:07;;;;;;;19.87;10.67;;;17.90;99.90;;;;;;4995098;28;20881;-54
2021/08/30 08:34:34;;;;;;;13.83;9.97;;;18.00;99.90;;;;;;4995189;28;20455;-54
2021/08/30 08:37:05;;;;;;;12.07;10.07;;;18.00;99.90;;;;;;4994544;28;20455;-54
2021/08/30 08:39:32;;;;;;;12.00;9.83;;;18.00;99.90;;;;;;4994673;28;20795;-54
2021/08/30 08:41:58;;;;;;;11.37;9.70;;;17.90;99.90;;;;;;4994208;28;20431;-54
2021/08/30 08:44:25;;;;;;;9.77;8.33;;;18.10;99.90;;;;;;4994997;28;20454;-54
2021/08/30 08:46:52;;;;;;;10.37;9.27;;;18.10;99.90;;;;;;4994750;28;20553;-54
2021/08/30 08:49:20;;;;;;;10.90;8.20;;;18.20;99.90;;;;;;4994360;28;20489;-53
2021/08/30 08:51:46;;;;;;;12.13;8.03;;;18.30;99.90;;;;;;4995180;28;20443;-53
2021/08/30 08:54:14;;;;;;;8.70;7.80;;;18.30;99.90;;;;;;4995063;28;20451;-53
2021/08/30 08:56:41;;;;;;;9.40;8.50;;;18.20;99.90;;;;;;4994435;28;20829;-53
2021/08/30 08:59:08;;;;;;;9.60;7.10;;;18.30;99.90;;;;;;4994504;28;20467;-55
2021/08/30 09:01:37;;;;;;;9.27;8.37;;;18.30;99.90;;;;;;4995249;28;20440;-54
2021/08/30 09:04:04;;;;;;;9.00;8.10;;;18.40;99.90;;;;;;4994780;28;20449;-54
2021/08/30 09:06:39;;;;;;;9.13;7.53;;;18.50;99.90;;;;;;4994544;28;20460;-54
2021/08/30 09:09:07;;;;;;;8.80;7.90;;;18.60;99.90;;;;;;4993884;28;21162;-54
2021/08/30 09:11:38;;;;;;;9.57;8.23;;;18.60;99.90;;;;;;4994590;28;20436;-54
2021/08/30 09:14:15;;;;;;;11.37;8.87;;;18.50;99.90;;;;;;4994507;28;20926;-54
2021/08/30 09:16:41;;;;;;;8.30;7.50;;;18.60;99.90;;;;;;4994759;28;20463;-54
2021/08/30 09:19:11;;;;;;;9.20;8.37;;;18.50;99.90;;;;;;4993558;28;20450;-53
2021/08/30 09:21:42;;;;;;;8.33;7.40;;;18.60;99.90;;;;;;4995527;28;20433;-54
2021/08/30 09:24:11;;;;;;;8.60;7.30;;;18.60;99.90;;;;;;4994864;28;20483;-53
2021/08/30 09:26:47;;;;;;;7.47;6.77;;;18.60;99.90;;;;;;4994060;28;20475;-54
2021/08/30 09:29:18;;;;;;;9.30;7.30;;;18.70;99.90;;;;;;4993417;28;21011;-54
2021/08/30 09:31:56;;;;;;;9.73;8.73;;;18.70;99.90;;;;;;4993555;28;20442;-54
2021/08/30 09:34:28;;;;;;;8.30;7.50;;;18.70;99.90;;;;;;4993977;28;20487;-53
2021/08/30 09:36:54;;;;;;;7.80;7.10;;;18.80;99.90;;;;;;4994504;28;20473;-53
2021/08/30 09:39:21;;;;;;;7.60;6.83;;;18.80;99.90;;;;;;4993601;28;20441;-53
2021/08/30 09:41:49;;;;;;;7.37;6.73;;;18.90;99.90;;;;;;4993347;28;20493;-54
2021/08/30 09:44:23;;;;;;;7.83;7.23;;;18.90;99.90;;;;;;4993095;28;20452;-54
2021/08/30 09:46:49;;;;;;;7.70;7.07;;;18.80;99.90;;;;;;4993707;28;20535;-54
2021/08/30 09:49:16;;;;;;;8.60;7.80;;;18.80;99.90;;;;;;4992878;28;20495;-54
2021/08/30 09:51:42;;;;;;;8.57;7.77;;;18.70;99.90;;;;;;4994014;28;20806;-54
2021/08/30 09:54:10;;;;;;;7.70;6.90;;;18.70;99.90;;;;;;4993488;28;20440;-54
2021/08/30 09:56:38;;;;;;;8.50;7.60;;;18.60;99.90;;;;;;4993387;28;20506;-54
2021/08/30 09:59:08;;;;;;;7.73;6.57;;;18.60;99.90;;;;;;4992968;28;20444;-55
2021/08/30 10:01:37;;;;;;;7.20;6.60;;;18.70;99.90;;;;;;4993097;28;20443;-55
2021/08/30 10:04:06;;;;;;;7.50;6.80;;;18.60;99.90;;;;;;4992897;28;20455;-54
2021/08/30 10:06:34;;;;;;;8.33;6.63;;;18.60;99.90;;;;;;4993154;28;20491;-55
2021/08/30 10:09:01;;;;;;;8.97;7.73;;;18.50;99.90;;;;;;4992683;28;20960;-54
2021/08/30 10:11:29;;;;;;;8.43;7.63;;;18.60;99.90;;;;;;4993335;28;20440;-54
2021/08/30 10:13:56;;;;;;;8.37;7.57;;;18.60;99.90;;;;;;4993023;28;20579;-54
2021/08/30 10:16:25;;;;;;;8.10;7.50;;;18.60;99.90;;;;;;4975400;28;20476;-54
2021/08/30 10:18:55;;;;;;;8.63;7.80;;;18.70;99.90;;;;;;4992801;28;20439;-54
2021/08/30 10:21:22;;;;;;;9.07;8.20;;;18.70;99.90;;;;;;4993028;28;20460;-55
2021/08/30 10:23:49;;;;;;;11.87;9.40;;;18.80;99.90;;;;;;4993003;28;20476;-54
2021/08/30 10:26:16;;;;;;;7.90;7.10;;;18.80;99.90;;;;;;4992584;28;21029;-55
2021/08/30 10:28:45;;;;;;;7.33;6.50;;;18.90;99.90;;;;;;4992179;28;20502;-54
2021/08/30 10:31:19;;;;;;;7.90;7.20;;;19.00;99.90;;;;;;4992490;28;20451;-54
2021/08/30 10:33:50;;;;;;;9.40;7.73;;;18.90;99.90;;;;;;4992452;28;20434;-55
2021/08/30 10:36:19;;;;;;;8.63;7.83;;;18.90;99.90;;;;;;4992255;28;20479;-55
2021/08/30 10:39:00;;;;;;;8.23;6.70;;;19.00;99.90;;;;;;4994129;28;20808;-54
2021/08/30 10:41:32;;;;;;;7.23;6.53;;;19.00;99.90;;;;;;4992600;28;20445;-55
2021/08/30 10:44:07;;;;;;;6.60;6.00;;;19.20;99.90;;;;;;4992707;28;20440;-55
2021/08/30 10:46:42;;;;;;;7.63;6.50;;;19.00;99.90;;;;;;4992316;28;20456;-54
2021/08/30 10:49:12;;;;;;;9.53;7.07;;;19.10;99.90;;;;;;4974233;28;20502;-54
2021/08/30 10:51:40;;;;;;;5.33;4.83;;;19.20;99.90;;;;;;4992433;28;20503;-54
2021/08/30 10:54:09;;;;;;;6.27;5.30;;;19.20;99.90;;;;;;4992487;28;20443;-55
2021/08/30 10:56:36;;;;;;;6.47;5.87;;;19.20;99.90;;;;;;4992061;28;20460;-54
2021/08/30 10:59:06;;;;;;;5.30;4.80;;;19.20;99.90;;;;;;4991529;28;20437;-53
2021/08/30 11:01:34;;;;;;;5.77;5.17;;;19.30;99.90;;;;;;4992111;28;20472;-54
2021/08/30 11:04:01;;;;;;;6.00;5.40;;;19.20;99.90;;;;;;4991970;28;20445;-53
2021/08/30 11:06:30;;;;;;;6.20;5.70;;;19.30;99.90;;;;;;4992186;28;20457;-54
2021/08/30 11:08:57;;;;;;;6.20;5.60;;;19.30;99.90;;;;;;4991225;28;21010;-54
2021/08/30 11:11:25;;;;;;;6.53;5.93;;;19.20;99.90;;;;;;4991821;28;20956;-53
2021/08/30 11:14:04;;;;;;;7.43;6.60;;;19.30;99.90;;;;;;4991685;28;20452;-54
2021/08/30 11:16:33;;;;;;;7.60;7.00;;;19.40;99.90;;;;;;4991735;28;20956;-54
2021/08/30 11:19:01;;;;;;;9.43;8.13;;;19.30;99.90;;;;;;4991767;28;20433;-54
2021/08/30 11:21:46;;;;;;;7.60;6.70;;;19.40;99.90;;;;;;4992163;28;20820;-54
2021/08/30 11:24:26;;;;;;;7.67;6.80;;;19.50;99.90;;;;;;4992006;28;20433;-54
2021/08/30 11:26:54;;;;;;;7.97;6.47;;;19.60;99.90;;;;;;4991797;28;20471;-54
2021/08/30 11:29:21;;;;;;;8.63;6.10;;;19.60;99.90;;;;;;4991387;28;20484;-54
2021/08/30 11:31:49;;;;;;;6.33;5.43;;;19.70;99.90;;;;;;4992025;28;20440;-53
2021/08/30 11:34:25;;;;;;;8.33;7.27;;;19.80;99.90;;;;;;4991980;28;20433;-54
2021/08/30 11:36:54;;;;;;;5.97;5.47;;;20.00;99.90;;;;;;4991324;28;20456;-55
2021/08/30 11:39:22;;;;;;;6.00;5.50;;;20.10;99.90;;;;;;4991818;28;20449;-55
2021/08/30 11:41:53;;;;;;;5.60;5.10;;;20.30;99.90;;;;;;4994825;28;20523;-55
2021/08/30 11:44:20;;;;;;;5.77;5.27;;;20.30;99.90;;;;;;4996258;28;20434;-55
2021/08/30 11:46:49;;;;;;;6.57;5.97;;;20.30;99.90;;;;;;4995573;28;20460;-54
2021/08/30 11:49:16;;;;;;;5.90;5.30;;;20.40;99.90;;;;;;4995310;28;20483;-54
2021/08/30 11:51:44;;;;;;;8.30;5.60;;;20.20;99.90;;;;;;4995833;28;20437;-53
2021/08/30 11:54:18;;;;;;;6.33;5.00;;;20.10;99.90;;;;;;4996247;28;20445;-54
2021/08/30 11:56:56;;;;;;;8.63;5.63;;;20.00;99.90;;;;;;4995586;28;20458;-54
2021/08/30 11:59:27;;;;;;;7.70;5.33;;;19.90;99.90;;;;;;4994795;28;20442;-54
2021/08/30 12:01:54;;;;;;;6.80;5.33;;;19.80;99.90;;;;;;4995512;28;20438;-55
2021/08/30 12:04:21;;;;;;;6.00;4.50;;;19.80;99.90;;;;;;4995638;28;20447;-54
2021/08/30 12:06:52;;;;;;;5.00;4.50;;;19.90;99.90;;;;;;4995375;28;20452;-54
2021/08/30 12:09:20;;;;;;;4.37;3.97;;;19.90;99.90;;;;;;4994943;28;20544;-54
2021/08/30 12:11:49;;;;;;;7.30;5.57;;;20.10;99.90;;;;;;4995150;28;20788;-54
2021/08/30 12:14:16;;;;;;;4.50;4.10;;;20.00;99.90;;;;;;4995401;28;20533;-54
2021/08/30 12:16:44;;;;;;;3.80;3.50;;;20.00;99.90;;;;;;4995228;28;20520;-54
2021/08/30 12:19:11;;;;;;;4.17;3.80;;;20.00;99.90;;;;;;4994815;28;20469;-56
2021/08/30 12:21:40;;;;;;;4.37;3.97;;;20.00;99.90;;;;;;4995076;28;20429;-54
2021/08/30 12:24:09;;;;;;;4.37;3.80;;;20.00;99.90;;;;;;4995615;28;20445;-54
2021/08/30 12:26:39;;;;;;;4.60;3.77;;;20.00;99.90;;;;;;4995102;28;20994;-54
2021/08/30 12:29:06;;;;;;;5.03;3.90;;;19.90;99.90;;;;;;4994550;28;20442;-55
2021/08/30 12:31:34;;;;;;;4.37;3.80;;;19.90;99.90;;;;;;4995695;28;20472;-54
2021/08/30 12:34:06;;;;;;;4.77;4.27;;;19.90;99.90;;;;;;4994202;28;20942;-54
2021/08/30 12:36:33;;;;;;;4.93;4.20;;;19.90;99.90;;;;;;4995034;28;20454;-56
2021/08/30 12:39:00;;;;;;;3.90;3.47;;;19.90;99.90;;;;;;4994502;28;20478;-55
2021/08/30 12:41:26;;;;;;;3.73;3.43;;;20.00;99.90;;;;;;4993910;28;20464;-55
2021/08/30 12:43:54;;;;;;;6.50;2.70;;;20.00;99.90;;;;;;4994288;28;20564;-54
2021/08/30 12:46:22;;;;;;;4.20;3.80;;;20.10;99.90;;;;;;4994462;28;20942;-53
2021/08/30 12:48:49;;;;;;;13.83;7.20;;;20.30;99.90;;;;;;4994179;28;20442;-55
2021/08/30 12:51:16;;;;;;;4.13;3.40;;;20.40;99.90;;;;;;4994031;28;20496;-55